SWR8CM EHAM-LSZH
Flight info
| Callsign | SWR8CM |
|---|---|
| Flight time | N/A |
| Altitude | 33000 |
| Route | LOPIK N852 LNO DCT SUTAL DCT GTQ DCT BAMEV DCT BLM |
| Aircraft | A320/M-SDE3FGHIRWY/LB1 |
Departure
| Time | 2026-05-05 18:57 |
|---|---|
| Airport | Amsterdam Airport Schiphol (EHAM) |
Arrival
| Time | N/A |
|---|---|
| Airport | Zürich Airport (LSZH) |
| Time | Latitude | Longitude | Altitude | Speed | Heading |
|---|---|---|---|---|---|
| 2026-05-05 18:25 | 52.30342 | 4.76427 | -1 ft | 0 kts | 238° |
| 2026-05-05 18:47 | 52.30342 | 4.76428 | -1 ft | 2 kts | 238° |
| 2026-05-05 18:47 | 52.30355 | 4.76463 | -1 ft | 4 kts | 233° |
| 2026-05-05 18:47 | 52.30373 | 4.76489 | -1 ft | 4 kts | 172° |
| 2026-05-05 18:47 | 52.30378 | 4.76488 | -1 ft | 0 kts | 158° |
| 2026-05-05 18:48 | 52.30371 | 4.76499 | -1 ft | 5 kts | 139° |
| 2026-05-05 18:49 | 52.30300 | 4.76523 | -1 ft | 15 kts | 209° |
| 2026-05-05 18:49 | 52.30244 | 4.76390 | -1 ft | 14 kts | 238° |
| 2026-05-05 18:49 | 52.30180 | 4.76221 | -1 ft | 21 kts | 238° |
| 2026-05-05 18:49 | 52.30095 | 4.75999 | -1 ft | 23 kts | 238° |
| 2026-05-05 18:50 | 52.30013 | 4.75785 | -1 ft | 21 kts | 238° |
| 2026-05-05 18:50 | 52.29936 | 4.75586 | -1 ft | 20 kts | 238° |
| 2026-05-05 18:50 | 52.29863 | 4.75398 | -1 ft | 19 kts | 238° |
| 2026-05-05 18:50 | 52.29843 | 4.75205 | -1 ft | 19 kts | 294° |
| 2026-05-05 18:51 | 52.29943 | 4.75004 | -1 ft | 27 kts | 308° |
| 2026-05-05 18:51 | 52.30078 | 4.74758 | 1 ft | 29 kts | 311° |
| 2026-05-05 18:51 | 52.30198 | 4.74536 | 10 ft | 25 kts | 311° |
| 2026-05-05 18:51 | 52.30310 | 4.74331 | 4 ft | 25 kts | 310° |
| 2026-05-05 18:52 | 52.30314 | 4.74164 | -1 ft | 11 kts | 227° |
| 2026-05-05 18:52 | 52.30304 | 4.74147 | -1 ft | 2 kts | 237° |
| 2026-05-05 18:52 | 52.30327 | 4.74071 | -1 ft | 7 kts | 296° |
| 2026-05-05 18:52 | 52.30310 | 4.74021 | -1 ft | 5 kts | 218° |
| 2026-05-05 18:53 | 52.30287 | 4.73994 | -1 ft | 0 kts | 216° |
| 2026-05-05 18:53 | 52.30285 | 4.73991 | -1 ft | 2 kts | 215° |
| 2026-05-05 18:54 | 52.30259 | 4.73961 | -1 ft | 0 kts | 216° |
| 2026-05-05 18:54 | 52.30257 | 4.73959 | -1 ft | 2 kts | 216° |
| 2026-05-05 18:54 | 52.30234 | 4.73932 | -1 ft | 6 kts | 216° |
| 2026-05-05 18:55 | 52.30221 | 4.73915 | -1 ft | 0 kts | 218° |
| 2026-05-05 18:55 | 52.30201 | 4.73886 | -1 ft | 9 kts | 227° |
| 2026-05-05 18:56 | 52.30191 | 4.73776 | -2 ft | 10 kts | 279° |
| 2026-05-05 18:56 | 52.30239 | 4.73743 | -3 ft | 5 kts | 2° |
| 2026-05-05 18:56 | 52.30240 | 4.73743 | -3 ft | 1 kts | 2° |
| 2026-05-05 18:56 | 52.30360 | 4.73753 | -4 ft | 49 kts | 3° |
| 2026-05-05 18:57 | 52.30919 | 4.73804 | -1 ft | 110 kts | 3° |
| 2026-05-05 18:57 | 52.31858 | 4.73887 | 4 ft | 158 kts | 3° |
| 2026-05-05 18:57 | 52.32995 | 4.73992 | 547 ft | 161 kts | 8° |
| 2026-05-05 18:57 | 52.34074 | 4.74474 | 1294 ft | 165 kts | 21° |
| 2026-05-05 18:58 | 52.35229 | 4.75211 | 1588 ft | 191 kts | 22° |
| 2026-05-05 18:58 | 52.36509 | 4.76063 | 2178 ft | 202 kts | 27° |
| 2026-05-05 18:58 | 52.37505 | 4.77666 | 2913 ft | 209 kts | 67° |
| 2026-05-05 18:58 | 52.37635 | 4.80080 | 3673 ft | 220 kts | 94° |
| 2026-05-05 18:59 | 52.37230 | 4.82545 | 4457 ft | 231 kts | 114° |
| 2026-05-05 18:59 | 52.36089 | 4.84457 | 5149 ft | 246 kts | 150° |
| 2026-05-05 18:59 | 52.34354 | 4.85158 | 5530 ft | 272 kts | 176° |
| 2026-05-05 18:59 | 52.32430 | 4.85206 | 6232 ft | 282 kts | 180° |
| 2026-05-05 19:00 | 52.30451 | 4.85116 | 7054 ft | 283 kts | 182° |
| 2026-05-05 19:00 | 52.28475 | 4.84987 | 7925 ft | 286 kts | 182° |
| 2026-05-05 19:00 | 52.26488 | 4.85209 | 8770 ft | 289 kts | 167° |
| 2026-05-05 19:00 | 52.24603 | 4.86358 | 9598 ft | 292 kts | 150° |
| 2026-05-05 19:01 | 52.22939 | 4.88310 | 10263 ft | 301 kts | 141° |
| 2026-05-05 19:01 | 52.21242 | 4.90534 | 10491 ft | 325 kts | 141° |
| 2026-05-05 19:01 | 52.19428 | 4.92911 | 10828 ft | 341 kts | 141° |
| 2026-05-05 19:01 | 52.17555 | 4.95356 | 11477 ft | 347 kts | 141° |
| 2026-05-05 19:02 | 52.15657 | 4.97821 | 12205 ft | 351 kts | 141° |
| 2026-05-05 19:02 | 52.13764 | 5.00270 | 12928 ft | 354 kts | 141° |
| 2026-05-05 19:02 | 52.11821 | 5.02776 | 13641 ft | 358 kts | 141° |
| 2026-05-05 19:02 | 52.09728 | 5.05004 | 14275 ft | 362 kts | 152° |
| 2026-05-05 19:03 | 52.07388 | 5.06545 | 14904 ft | 365 kts | 163° |
| 2026-05-05 19:03 | 52.04931 | 5.07646 | 15560 ft | 368 kts | 164° |
| 2026-05-05 19:03 | 52.02456 | 5.08746 | 16178 ft | 370 kts | 164° |
| 2026-05-05 19:03 | 51.99956 | 5.09855 | 16813 ft | 373 kts | 164° |
| 2026-05-05 19:04 | 51.97445 | 5.10974 | 17440 ft | 376 kts | 163° |
| 2026-05-05 19:04 | 51.94919 | 5.12099 | 18071 ft | 378 kts | 163° |
| 2026-05-05 19:04 | 51.92410 | 5.13212 | 18631 ft | 380 kts | 164° |
| 2026-05-05 19:04 | 51.89853 | 5.14342 | 19211 ft | 381 kts | 164° |
| 2026-05-05 19:05 | 51.87287 | 5.15477 | 19801 ft | 383 kts | 165° |
| 2026-05-05 19:05 | 51.84714 | 5.16619 | 20398 ft | 384 kts | 165° |
| 2026-05-05 19:05 | 51.82162 | 5.17753 | 20950 ft | 386 kts | 165° |
| 2026-05-05 19:05 | 51.79563 | 5.18908 | 21478 ft | 389 kts | 165° |
| 2026-05-05 19:06 | 51.76940 | 5.20070 | 21999 ft | 392 kts | 165° |
| 2026-05-05 19:06 | 51.74300 | 5.21238 | 22498 ft | 395 kts | 165° |
| 2026-05-05 19:06 | 51.71646 | 5.22409 | 22997 ft | 397 kts | 166° |
| 2026-05-05 19:06 | 51.68960 | 5.23590 | 23486 ft | 400 kts | 166° |
| 2026-05-05 19:07 | 51.66268 | 5.24773 | 23899 ft | 402 kts | 166° |
| 2026-05-05 19:07 | 51.63566 | 5.25961 | 24293 ft | 403 kts | 165° |
| 2026-05-05 19:07 | 51.60853 | 5.27151 | 24695 ft | 405 kts | 165° |
| 2026-05-05 19:07 | 51.58130 | 5.28343 | 24837 ft | 405 kts | 165° |
| 2026-05-05 19:08 | 51.55415 | 5.29531 | 24869 ft | 404 kts | 165° |
| 2026-05-05 19:08 | 51.52703 | 5.30716 | 24869 ft | 403 kts | 165° |
| 2026-05-05 19:08 | 51.49997 | 5.31897 | 24866 ft | 403 kts | 165° |
| 2026-05-05 19:08 | 51.47292 | 5.33076 | 24861 ft | 403 kts | 165° |
| 2026-05-05 19:09 | 51.44589 | 5.34254 | 24859 ft | 403 kts | 165° |
| 2026-05-05 19:09 | 51.41883 | 5.35433 | 24908 ft | 405 kts | 165° |
| 2026-05-05 19:09 | 51.39156 | 5.36619 | 25306 ft | 407 kts | 165° |
| 2026-05-05 19:09 | 51.36420 | 5.37807 | 25694 ft | 408 kts | 165° |
| 2026-05-05 19:10 | 51.33675 | 5.39003 | 26069 ft | 410 kts | 165° |
| 2026-05-05 19:10 | 51.30915 | 5.40205 | 26438 ft | 412 kts | 165° |
| 2026-05-05 19:10 | 51.28141 | 5.41407 | 26804 ft | 414 kts | 165° |
| 2026-05-05 19:10 | 51.25354 | 5.42584 | 27157 ft | 415 kts | 166° |
| 2026-05-05 19:11 | 51.22529 | 5.43637 | 27505 ft | 417 kts | 167° |
| 2026-05-05 19:11 | 51.19683 | 5.44587 | 27856 ft | 419 kts | 168° |
| 2026-05-05 19:11 | 51.16827 | 5.45527 | 28184 ft | 421 kts | 167° |
| 2026-05-05 19:11 | 51.13973 | 5.46608 | 28506 ft | 422 kts | 165° |
| 2026-05-05 19:12 | 51.11131 | 5.47808 | 28820 ft | 424 kts | 164° |
| 2026-05-05 19:12 | 51.08282 | 5.49089 | 29124 ft | 425 kts | 163° |
| 2026-05-05 19:12 | 51.05472 | 5.50383 | 29414 ft | 427 kts | 163° |
| 2026-05-05 19:12 | 51.02612 | 5.51693 | 29701 ft | 428 kts | 163° |
| 2026-05-05 19:13 | 50.99735 | 5.52984 | 29974 ft | 430 kts | 163° |
| 2026-05-05 19:13 | 50.96850 | 5.54249 | 30202 ft | 431 kts | 164° |
| 2026-05-05 19:13 | 50.93955 | 5.55500 | 30440 ft | 432 kts | 164° |
| 2026-05-05 19:13 | 50.91052 | 5.56744 | 30681 ft | 432 kts | 164° |
| 2026-05-05 19:14 | 50.88149 | 5.57988 | 30994 ft | 430 kts | 164° |
| 2026-05-05 19:14 | 50.85265 | 5.59227 | 31321 ft | 428 kts | 163° |
| 2026-05-05 19:14 | 50.82396 | 5.60465 | 31654 ft | 427 kts | 163° |
| 2026-05-05 19:14 | 50.79539 | 5.61699 | 31969 ft | 425 kts | 163° |
| 2026-05-05 19:15 | 50.76690 | 5.62928 | 32293 ft | 424 kts | 163° |
| 2026-05-05 19:15 | 50.73847 | 5.64150 | 32617 ft | 422 kts | 163° |
| 2026-05-05 19:15 | 50.71017 | 5.65364 | 32824 ft | 421 kts | 163° |
| 2026-05-05 19:15 | 50.68208 | 5.66567 | 32866 ft | 415 kts | 163° |
| 2026-05-05 19:16 | 50.62686 | 5.69047 | 32859 ft | 412 kts | 162° |
| 2026-05-05 19:16 | 50.57244 | 5.71818 | 32862 ft | 411 kts | 157° |
| 2026-05-05 19:17 | 50.51929 | 5.75184 | 32861 ft | 411 kts | 157° |
| 2026-05-05 19:17 | 50.46634 | 5.78484 | 32854 ft | 412 kts | 157° |
| 2026-05-05 19:18 | 50.41308 | 5.81781 | 32846 ft | 412 kts | 157° |
| 2026-05-05 19:18 | 50.35969 | 5.85068 | 32826 ft | 412 kts | 157° |
| 2026-05-05 19:19 | 50.30637 | 5.88361 | 32828 ft | 412 kts | 157° |
| 2026-05-05 19:19 | 50.25291 | 5.91662 | 32821 ft | 413 kts | 157° |
| 2026-05-05 19:20 | 50.19942 | 5.94953 | 32821 ft | 413 kts | 157° |
| 2026-05-05 19:20 | 50.14583 | 5.98238 | 32816 ft | 414 kts | 157° |
| 2026-05-05 19:21 | 50.09218 | 6.01509 | 32812 ft | 414 kts | 157° |
| 2026-05-05 19:21 | 50.03842 | 6.04781 | 32812 ft | 415 kts | 157° |
| 2026-05-05 19:22 | 49.98508 | 6.08019 | 32806 ft | 415 kts | 157° |
| 2026-05-05 19:22 | 49.93129 | 6.11288 | 32801 ft | 416 kts | 157° |
| 2026-05-05 19:23 | 49.87730 | 6.14568 | 32797 ft | 417 kts | 157° |
| 2026-05-05 19:23 | 49.82317 | 6.17831 | 32798 ft | 417 kts | 157° |
| 2026-05-05 19:24 | 49.76895 | 6.21087 | 32796 ft | 418 kts | 158° |
| 2026-05-05 19:24 | 49.71472 | 6.24351 | 32797 ft | 418 kts | 158° |
| 2026-05-05 19:25 | 49.66036 | 6.27611 | 32795 ft | 419 kts | 158° |
| 2026-05-05 19:25 | 49.60586 | 6.30865 | 32792 ft | 419 kts | 158° |
| 2026-05-05 19:26 | 49.56066 | 6.33571 | 32803 ft | 420 kts | 158° |
| 2026-05-05 19:26 | 49.49726 | 6.37347 | 32802 ft | 420 kts | 158° |
| 2026-05-05 19:27 | 49.45162 | 6.40089 | 32805 ft | 420 kts | 157° |
| 2026-05-05 19:27 | 49.39803 | 6.43680 | 32810 ft | 420 kts | 155° |
| 2026-05-05 19:28 | 49.34481 | 6.47425 | 32811 ft | 421 kts | 155° |
| 2026-05-05 19:28 | 49.29168 | 6.51101 | 32819 ft | 421 kts | 155° |
| 2026-05-05 19:29 | 49.23799 | 6.54733 | 32823 ft | 421 kts | 156° |
| 2026-05-05 19:29 | 49.18426 | 6.58339 | 32820 ft | 421 kts | 156° |
| 2026-05-05 19:30 | 49.13050 | 6.61954 | 32828 ft | 422 kts | 156° |
| 2026-05-05 19:30 | 49.07675 | 6.65566 | 32824 ft | 422 kts | 156° |
| 2026-05-05 19:31 | 49.02342 | 6.69142 | 32827 ft | 422 kts | 156° |
| 2026-05-05 19:31 | 48.96957 | 6.72703 | 32830 ft | 421 kts | 158° |
| 2026-05-05 19:32 | 48.91502 | 6.75981 | 32829 ft | 421 kts | 160° |
| 2026-05-05 19:32 | 48.86020 | 6.79139 | 32835 ft | 421 kts | 160° |
| 2026-05-05 19:33 | 48.80551 | 6.82330 | 32837 ft | 421 kts | 159° |
| 2026-05-05 19:33 | 48.75086 | 6.85562 | 32833 ft | 421 kts | 159° |
| 2026-05-05 19:34 | 48.69662 | 6.88766 | 32830 ft | 421 kts | 160° |
| 2026-05-05 19:35 | 48.61458 | 6.93572 | 32828 ft | 422 kts | 160° |
| 2026-05-05 19:35 | 48.55976 | 6.96781 | 32833 ft | 422 kts | 160° |
| 2026-05-05 19:36 | 48.50495 | 6.99984 | 32822 ft | 423 kts | 160° |
| 2026-05-05 19:36 | 48.45003 | 7.03194 | 32818 ft | 426 kts | 160° |
| 2026-05-05 19:37 | 48.39458 | 7.06421 | 32823 ft | 428 kts | 160° |
| 2026-05-05 19:37 | 48.33876 | 7.09655 | 32829 ft | 430 kts | 160° |
| 2026-05-05 19:38 | 48.28280 | 7.12888 | 32835 ft | 432 kts | 160° |
| 2026-05-05 19:38 | 48.22664 | 7.16129 | 32832 ft | 433 kts | 160° |
| 2026-05-05 19:39 | 48.17037 | 7.19379 | 32837 ft | 434 kts | 161° |
| 2026-05-05 19:39 | 48.11395 | 7.22620 | 32838 ft | 434 kts | 161° |
| 2026-05-05 19:40 | 48.05742 | 7.25849 | 32842 ft | 435 kts | 161° |
| 2026-05-05 19:40 | 48.00122 | 7.29060 | 32841 ft | 435 kts | 161° |
| 2026-05-05 19:41 | 47.94468 | 7.32292 | 32851 ft | 435 kts | 161° |
| 2026-05-05 19:41 | 47.88814 | 7.35506 | 32852 ft | 435 kts | 161° |
| 2026-05-05 19:42 | 47.83145 | 7.38718 | 32865 ft | 436 kts | 161° |
| 2026-05-05 19:42 | 47.77474 | 7.41928 | 32874 ft | 436 kts | 162° |
| 2026-05-05 19:43 | 47.71805 | 7.45133 | 32875 ft | 436 kts | 162° |
| 2026-05-05 19:43 | 47.66132 | 7.48339 | 32883 ft | 435 kts | 162° |
| 2026-05-05 19:44 | 47.60501 | 7.51491 | 32877 ft | 436 kts | 162° |
| 2026-05-05 19:44 | 47.54825 | 7.54634 | 32881 ft | 435 kts | 162° |
| 2026-05-05 19:45 | 47.49161 | 7.57801 | 32872 ft | 435 kts | 162° |
| 2026-05-05 19:45 | 47.43511 | 7.60993 | 32869 ft | 435 kts | 162° |
| 2026-05-05 19:46 | 47.37864 | 7.64211 | 32868 ft | 434 kts | 162° |
| 2026-05-05 19:46 | 47.32233 | 7.67443 | 32875 ft | 434 kts | 162° |
| 2026-05-05 19:47 | 47.26604 | 7.70688 | 32870 ft | 434 kts | 162° |
| 2026-05-05 19:47 | 47.20985 | 7.73950 | 32867 ft | 434 kts | 162° |
| 2026-05-05 19:48 | 47.15372 | 7.77226 | 32864 ft | 434 kts | 162° |
| 2026-05-05 19:48 | 47.09764 | 7.80514 | 32861 ft | 434 kts | 162° |
| 2026-05-05 19:49 | 47.04169 | 7.83810 | 32858 ft | 433 kts | 162° |
| 2026-05-05 19:49 | 46.98584 | 7.87121 | 32854 ft | 433 kts | 162° |
| 2026-05-05 19:50 | 46.93011 | 7.90455 | 32851 ft | 432 kts | 162° |
| 2026-05-05 19:50 | 46.87496 | 7.93787 | 32841 ft | 432 kts | 162° |
| 2026-05-05 19:51 | 46.81955 | 7.97175 | 32836 ft | 431 kts | 162° |
| 2026-05-05 19:51 | 46.76422 | 8.00594 | 32826 ft | 431 kts | 162° |
| 2026-05-05 19:52 | 46.70905 | 8.04043 | 32823 ft | 431 kts | 162° |
| 2026-05-05 19:52 | 46.65403 | 8.07519 | 32821 ft | 431 kts | 162° |
| 2026-05-05 19:53 | 46.59910 | 8.11014 | 32804 ft | 430 kts | 162° |
| 2026-05-05 19:53 | 46.54427 | 8.14520 | 32800 ft | 430 kts | 162° |
| 2026-05-05 19:54 | 46.48959 | 8.18064 | 32805 ft | 430 kts | 162° |
| 2026-05-05 19:54 | 46.43512 | 8.21638 | 32816 ft | 430 kts | 162° |